Time;durP1;ratioP1;P1;durP2;ratioP2;P2;SDS_P1;SDS_P2;PMS_P1;PMS_P2;Temp;Humidity;BMP_temperature;BMP_pressure;BME280_temperature;BME280_humidity;BME280_pressure;Samples;Min_cycle;Max_cycle;Signal;HPM_P1;HPM_P2
2022/04/22 00:00:38;;;;;;;0.10;0.10;;;9.90;99.90;;;;;;5091241;28;20040;-79
2022/04/22 00:03:08;;;;;;;0.10;0.10;;;9.80;99.90;;;;;;5091554;28;20037;-80
2022/04/22 00:05:35;;;;;;;0.10;0.10;;;9.80;99.90;;;;;;5090892;28;20119;-76
2022/04/22 00:08:03;;;;;;;0.20;0.20;;;9.70;99.90;;;;;;5074882;28;20044;-79
2022/04/22 00:10:29;;;;;;;0.10;0.10;;;9.70;99.90;;;;;;5074379;28;20120;-76
2022/04/22 00:12:56;;;;;;;0.10;0.10;;;9.70;99.90;;;;;;5074502;28;20182;-78
2022/04/22 00:15:23;;;;;;;0.10;0.10;;;9.60;99.90;;;;;;5070909;28;20040;-79
2022/04/22 00:17:50;;;;;;;0.10;0.10;;;9.60;99.90;;;;;;5071202;28;20132;-76
2022/04/22 00:20:17;;;;;;;0.10;0.10;;;9.60;99.90;;;;;;5087785;28;20186;-76
2022/04/22 00:22:44;;;;;;;0.10;0.10;;;9.50;99.90;;;;;;5070860;28;20052;-76
2022/04/22 00:25:13;;;;;;;0.43;0.43;;;9.40;99.90;;;;;;5099814;28;20045;-79
2022/04/22 00:27:40;;;;;;;0.10;0.10;;;9.40;99.90;;;;;;5091120;28;20257;-80
2022/04/22 00:30:09;;;;;;;0.10;0.10;;;9.40;99.90;;;;;;5090889;28;20040;-79
2022/04/22 00:32:37;;;;;;;0.10;0.10;;;9.30;99.90;;;;;;5073951;28;20048;-76
2022/04/22 00:35:05;;;;;;;0.10;0.10;;;9.30;99.90;;;;;;5074440;28;20037;-79
2022/04/22 00:37:32;;;;;;;0.57;0.20;;;9.30;99.90;;;;;;5106952;28;20132;-80
2022/04/22 00:39:58;;;;;;;0.10;0.10;;;9.30;99.90;;;;;;5090855;28;20174;-79
2022/04/22 00:42:28;;;;;;;0.10;0.10;;;9.20;99.90;;;;;;5090177;28;20477;-80
2022/04/22 00:44:56;;;;;;;0.10;0.10;;;9.10;99.90;;;;;;5090878;28;20087;-79
2022/04/22 00:47:23;;;;;;;0.10;0.10;;;9.10;99.90;;;;;;5085774;28;20065;-76
2022/04/22 00:49:51;;;;;;;0.10;0.10;;;9.10;99.90;;;;;;5087232;28;20145;-79
2022/04/22 00:52:19;;;;;;;0.10;0.10;;;9.10;99.90;;;;;;5086734;28;20186;-79
2022/04/22 00:54:47;;;;;;;0.10;0.10;;;9.00;99.90;;;;;;5076468;28;20041;-76
2022/04/22 00:57:15;;;;;;;0.10;0.10;;;9.00;99.90;;;;;;5107036;28;20044;-79
2022/04/22 00:59:43;;;;;;;0.17;0.17;;;8.90;99.90;;;;;;5106648;28;20036;-79
2022/04/22 01:02:10;;;;;;;0.10;0.10;;;8.90;99.90;;;;;;5073419;28;20448;-79
2022/04/22 01:10:11;;;;;;;;;;;8.90;99.90;;;;;;5107783;28;20080;-79
2022/04/22 01:12:38;;;;;;;0.10;0.10;;;8.80;99.90;;;;;;5106230;28;19959;-76
2022/04/22 01:15:06;;;;;;;0.20;0.20;;;8.80;99.90;;;;;;5089889;28;20105;-79
2022/04/22 01:17:32;;;;;;;0.10;0.10;;;8.70;99.90;;;;;;5089587;28;20370;-76
2022/04/22 01:19:59;;;;;;;0.20;0.20;;;8.70;99.90;;;;;;5089954;28;20174;-79
2022/04/22 01:22:27;;;;;;;0.10;0.10;;;8.70;99.90;;;;;;5089896;28;20048;-76
2022/04/22 01:25:00;;;;;;;0.17;0.17;;;8.60;99.90;;;;;;5106300;28;20045;-76
2022/04/22 01:27:31;;;;;;;0.10;0.10;;;8.60;99.90;;;;;;5089723;28;20115;-79
2022/04/22 01:30:00;;;;;;;0.10;0.10;;;8.60;99.90;;;;;;5090202;28;20033;-76
2022/04/22 01:32:27;;;;;;;0.10;0.10;;;8.60;99.90;;;;;;5089379;28;20512;-76
2022/04/22 01:34:54;;;;;;;0.20;0.20;;;8.50;99.90;;;;;;5089707;28;20044;-76
2022/04/22 01:37:21;;;;;;;0.10;0.10;;;8.50;99.90;;;;;;5089490;28;20041;-76
2022/04/22 01:39:48;;;;;;;0.10;0.10;;;8.50;99.90;;;;;;5089832;28;20049;-76
2022/04/22 01:42:15;;;;;;;0.10;0.10;;;8.40;99.90;;;;;;5089017;28;20084;-76
2022/04/22 01:44:41;;;;;;;0.10;0.10;;;8.40;99.90;;;;;;5072593;28;20041;-79
2022/04/22 01:47:08;;;;;;;0.10;0.10;;;8.40;99.90;;;;;;5072817;28;20037;-79
2022/04/22 01:49:35;;;;;;;0.10;0.10;;;8.40;99.90;;;;;;5088979;28;20029;-76
2022/04/22 01:52:01;;;;;;;0.10;0.10;;;8.40;99.90;;;;;;5056285;28;20044;-79
2022/04/22 01:54:28;;;;;;;0.10;0.10;;;8.40;99.90;;;;;;5071895;28;20109;-79
2022/04/22 01:56:55;;;;;;;0.10;0.10;;;8.30;99.90;;;;;;5083276;28;20048;-76
2022/04/22 01:59:21;;;;;;;0.10;0.10;;;8.40;99.90;;;;;;5063998;28;20047;-79
2022/04/22 02:01:48;;;;;;;0.10;0.10;;;8.30;99.90;;;;;;5122288;28;20032;-76
2022/04/22 02:04:15;;;;;;;0.10;0.10;;;8.20;99.90;;;;;;5089126;28;20409;-76
2022/04/22 02:06:41;;;;;;;0.20;0.20;;;8.20;99.90;;;;;;5088770;28;20076;-79
2022/04/22 02:09:08;;;;;;;0.10;0.10;;;8.20;99.90;;;;;;5088713;28;20048;-76
2022/04/22 02:11:35;;;;;;;0.10;0.10;;;8.10;99.90;;;;;;5072342;28;20040;-76
2022/04/22 02:14:02;;;;;;;0.20;0.20;;;8.10;99.90;;;;;;5088496;28;20048;-76
2022/04/22 02:16:29;;;;;;;3.60;0.55;;;8.10;99.90;;;;;;5088770;28;20051;-75
2022/04/22 02:18:57;;;;;;;0.10;0.10;;;8.00;99.90;;;;;;5105706;28;20056;-76
2022/04/22 02:21:24;;;;;;;0.10;0.10;;;7.90;99.90;;;;;;5088857;28;20539;-76
2022/04/22 02:23:51;;;;;;;0.10;0.10;;;7.90;99.90;;;;;;5072123;28;20075;-80
2022/04/22 02:26:17;;;;;;;0.10;0.10;;;8.10;99.90;;;;;;5072005;28;20378;-79
2022/04/22 02:28:44;;;;;;;0.10;0.10;;;7.80;99.90;;;;;;5088161;28;20546;-79
2022/04/22 02:31:12;;;;;;;0.10;0.10;;;7.80;99.90;;;;;;5072151;28;20044;-76
2022/04/22 02:33:41;;;;;;;0.10;0.10;;;7.80;99.90;;;;;;5071776;28;20063;-79
2022/04/22 02:36:10;;;;;;;0.10;0.10;;;7.80;99.90;;;;;;5105644;28;20052;-75
2022/04/22 02:38:37;;;;;;;0.20;0.20;;;7.70;99.90;;;;;;5087863;28;20079;-76
2022/04/22 02:46:35;;;;;;;0.20;0.20;;;7.80;99.90;;;;;;5090585;28;20076;-79
2022/04/22 02:49:02;;;;;;;0.10;0.10;;;7.60;99.90;;;;;;5071634;28;20072;-76
2022/04/22 02:51:29;;;;;;;0.20;0.20;;;7.60;99.90;;;;;;5105403;28;20052;-79
2022/04/22 02:53:56;;;;;;;0.17;0.17;;;7.60;99.90;;;;;;5104663;28;20041;-76
2022/04/22 02:56:23;;;;;;;0.10;0.10;;;7.60;99.90;;;;;;5072320;28;20126;-80
2022/04/22 02:58:51;;;;;;;0.10;0.10;;;7.60;99.90;;;;;;5088275;28;20503;-79
2022/04/22 03:01:18;;;;;;;0.10;0.10;;;7.50;99.90;;;;;;5088211;28;20036;-80
2022/04/22 03:03:45;;;;;;;0.10;0.10;;;7.50;99.90;;;;;;5071000;28;20101;-80
2022/04/22 03:06:13;;;;;;;0.10;0.10;;;7.40;99.90;;;;;;5072067;28;20037;-80
2022/04/22 03:08:39;;;;;;;0.10;0.10;;;7.40;99.90;;;;;;5104773;28;20040;-76
2022/04/22 03:11:06;;;;;;;0.20;0.20;;;7.50;99.90;;;;;;5090062;28;20492;-76
2022/04/22 03:13:33;;;;;;;0.10;0.10;;;7.40;99.90;;;;;;5076050;28;20047;-79
2022/04/22 03:16:02;;;;;;;0.20;0.20;;;7.40;99.90;;;;;;5092321;28;20036;-76
2022/04/22 03:18:29;;;;;;;0.10;0.10;;;7.40;99.90;;;;;;5109196;28;20041;-76
2022/04/22 03:20:56;;;;;;;0.20;0.20;;;7.40;99.90;;;;;;5108201;28;20493;-80
2022/04/22 03:23:23;;;;;;;0.10;0.10;;;7.30;99.90;;;;;;5075882;28;20041;-76
2022/04/22 03:25:50;;;;;;;0.15;0.15;;;7.30;99.90;;;;;;5091822;28;20488;-76
2022/04/22 03:28:17;;;;;;;0.10;0.10;;;7.30;99.90;;;;;;5075351;28;20473;-76
2022/04/22 03:30:43;;;;;;;0.10;0.10;;;7.30;99.90;;;;;;5075471;28;20044;-76
2022/04/22 03:33:10;;;;;;;0.20;0.20;;;7.30;99.90;;;;;;5091841;28;20036;-76
2022/04/22 03:35:37;;;;;;;0.17;0.17;;;7.30;99.90;;;;;;5092053;28;20032;-76
2022/04/22 03:38:03;;;;;;;0.10;0.10;;;7.30;99.90;;;;;;5108343;28;20078;-76
2022/04/22 03:40:30;;;;;;;0.20;0.20;;;7.20;99.90;;;;;;5091985;28;20466;-76
2022/04/22 03:42:58;;;;;;;0.10;0.10;;;7.20;99.90;;;;;;5092767;28;20129;-76
2022/04/22 03:45:24;;;;;;;6.80;0.43;;;7.20;99.90;;;;;;5058569;28;20036;-76
2022/04/22 03:47:51;;;;;;;0.30;0.30;;;7.20;99.90;;;;;;5091134;28;20101;-80
2022/04/22 03:50:18;;;;;;;0.10;0.10;;;7.20;99.90;;;;;;5091995;28;20117;-76
2022/04/22 03:52:45;;;;;;;0.20;0.20;;;7.20;99.90;;;;;;5091660;28;20398;-76
2022/04/22 03:55:11;;;;;;;0.10;0.10;;;7.10;99.90;;;;;;5075207;28;20497;-80
2022/04/22 04:00:23;;;;;;;0.10;0.10;;;7.10;99.90;;;;;;5073681;28;20052;-78
2022/04/22 04:02:50;;;;;;;0.10;0.10;;;7.00;99.90;;;;;;5087602;28;20036;-79
2022/04/22 04:05:17;;;;;;;0.10;0.10;;;7.10;99.90;;;;;;5087596;28;20063;-76
2022/04/22 04:07:44;;;;;;;0.10;0.10;;;7.00;99.90;;;;;;5070819;28;20041;-76
2022/04/22 04:18:45;;;;;;;0.10;0.10;;;6.90;99.90;;;;;;5093513;28;20041;-79
2022/04/22 04:23:57;;;;;;;0.10;0.10;;;6.80;99.90;;;;;;5091849;28;20090;-76
2022/04/22 04:26:25;;;;;;;0.10;0.10;;;6.80;99.90;;;;;;5074483;28;20072;-79
2022/04/22 04:28:53;;;;;;;0.20;0.20;;;6.70;99.90;;;;;;5090749;28;20036;-80
2022/04/22 04:31:20;;;;;;;0.10;0.10;;;7.00;99.90;;;;;;5091094;28;20044;-79
2022/04/22 04:33:49;;;;;;;0.10;0.10;;;6.90;99.90;;;;;;5090789;28;20075;-80
2022/04/22 04:36:15;;;;;;;0.10;0.10;;;6.50;99.90;;;;;;5074063;28;20079;-76
2022/04/22 04:38:42;;;;;;;0.10;0.10;;;6.60;99.90;;;;;;5073681;28;20063;-76
2022/04/22 04:41:12;;;;;;;0.15;0.15;;;6.50;99.90;;;;;;5079596;28;20036;-79
2022/04/22 04:43:39;;;;;;;0.13;0.13;;;6.60;99.90;;;;;;5098894;28;20399;-79
2022/04/22 04:46:06;;;;;;;0.10;0.10;;;6.60;99.90;;;;;;5099787;28;20082;-80
2022/04/22 04:48:36;;;;;;;0.10;0.10;;;6.60;99.90;;;;;;5098448;28;20037;-76
2022/04/22 04:51:04;;;;;;;0.15;0.15;;;6.60;99.90;;;;;;5067574;28;20401;-76
2022/04/22 04:53:31;;;;;;;0.20;0.20;;;6.90;99.90;;;;;;5101606;28;20047;-76
2022/04/22 04:55:57;;;;;;;0.20;0.20;;;6.60;99.90;;;;;;5080107;28;20037;-80
2022/04/22 04:58:24;;;;;;;0.10;0.10;;;7.20;99.90;;;;;;5087098;28;20410;-80
2022/04/22 05:00:51;;;;;;;0.10;0.10;;;6.50;99.90;;;;;;5098040;28;20116;-76
2022/04/22 05:03:18;;;;;;;0.20;0.20;;;6.50;99.90;;;;;;5071080;28;20049;-79
2022/04/22 05:05:45;;;;;;;0.10;0.10;;;6.50;99.90;;;;;;5104076;28;20095;-79
2022/04/22 05:08:11;;;;;;;0.10;0.10;;;6.60;99.90;;;;;;5089688;28;20109;-76
2022/04/22 05:10:38;;;;;;;0.15;0.15;;;6.60;99.90;;;;;;5073793;28;20037;-76
2022/04/22 05:13:05;;;;;;;0.10;0.10;;;6.50;99.90;;;;;;5089605;28;20037;-80
2022/04/22 05:15:33;;;;;;;0.10;0.10;;;6.50;99.90;;;;;;5089925;28;20037;-79
2022/04/22 05:18:02;;;;;;;0.15;0.15;;;6.50;99.90;;;;;;5086832;28;20033;-80
2022/04/22 05:20:30;;;;;;;0.10;0.10;;;6.40;99.90;;;;;;5099433;28;20064;-80
2022/04/22 05:22:58;;;;;;;0.10;0.10;;;6.50;99.90;;;;;;5079541;28;20587;-76
2022/04/22 05:25:31;;;;;;;0.10;0.10;;;6.60;99.90;;;;;;5062404;28;20043;-80
2022/04/22 05:27:57;;;;;;;0.10;0.10;;;6.50;99.90;;;;;;5070082;28;20029;-77
2022/04/22 05:33:10;;;;;;;0.10;0.10;;;6.60;99.90;;;;;;5091283;28;20359;-80
2022/04/22 05:35:37;;;;;;;0.10;0.10;;;6.60;99.90;;;;;;5106072;28;20044;-80
2022/04/22 05:38:05;;;;;;;0.20;0.20;;;6.60;99.90;;;;;;5105870;28;20081;-80
2022/04/22 05:40:37;;;;;;;0.10;0.10;;;6.60;99.90;;;;;;5097119;28;20544;-77
2022/04/22 05:43:06;;;;;;;0.10;0.10;;;6.60;99.90;;;;;;5111303;28;20057;-77
2022/04/22 05:45:34;;;;;;;0.10;0.10;;;6.70;99.90;;;;;;5096231;28;20037;-80
2022/04/22 05:48:01;;;;;;;0.10;0.10;;;6.70;99.90;;;;;;5061533;28;20032;-77
2022/04/22 05:50:28;;;;;;;0.10;0.10;;;6.80;99.90;;;;;;5063368;28;20427;-77
2022/04/22 05:52:55;;;;;;;0.20;0.20;;;6.80;99.90;;;;;;5085600;28;20150;-79
2022/04/22 05:55:27;;;;;;;0.15;0.15;;;6.90;99.90;;;;;;5068748;28;20387;-77
2022/04/22 05:57:55;;;;;;;0.10;0.10;;;6.90;99.90;;;;;;5069192;28;20045;-78
2022/04/22 06:00:24;;;;;;;0.10;0.10;;;7.00;99.90;;;;;;5066599;28;20040;-79
2022/04/22 06:02:52;;;;;;;0.20;0.20;;;7.00;99.90;;;;;;5086616;28;20391;-83
2022/04/22 06:05:23;;;;;;;0.10;0.10;;;7.20;99.90;;;;;;5069511;28;20239;-79
2022/04/22 06:10:37;;;;;;;0.10;0.10;;;7.20;99.90;;;;;;5101132;28;20413;-82
2022/04/22 06:13:05;;;;;;;0.20;0.20;;;7.30;99.90;;;;;;5105878;28;20051;-80
2022/04/22 06:15:32;;;;;;;0.10;0.10;;;7.40;99.90;;;;;;5106213;28;20044;-81
2022/04/22 06:17:59;;;;;;;0.10;0.10;;;7.50;99.90;;;;;;5107091;28;20041;-81
2022/04/22 06:20:26;;;;;;;0.10;0.10;;;7.50;99.90;;;;;;5105550;28;20455;-79
2022/04/22 06:22:54;;;;;;;0.10;0.10;;;7.60;99.90;;;;;;5072870;28;20049;-78
2022/04/22 06:25:21;;;;;;;0.38;0.38;;;7.70;99.90;;;;;;5079272;28;20466;-79
2022/04/22 06:27:48;;;;;;;0.10;0.10;;;8.10;99.90;;;;;;5081078;28;20115;-81
2022/04/22 06:30:20;;;;;;;0.20;0.20;;;7.80;99.90;;;;;;5081104;28;20032;-79
2022/04/22 06:32:50;;;;;;;0.20;0.20;;;7.90;99.90;;;;;;5124047;28;20127;-79
2022/04/22 06:35:23;;;;;;;0.13;0.13;;;7.90;99.90;;;;;;5080341;28;20043;-78
2022/04/22 06:37:52;;;;;;;0.20;0.20;;;8.00;99.90;;;;;;5134594;28;20072;-81
2022/04/22 06:45:52;;;;;;;0.10;0.10;;;8.30;99.90;;;;;;5091121;28;20556;-82
2022/04/22 06:48:30;;;;;;;0.10;0.10;;;8.40;99.90;;;;;;5105676;28;20083;-82
2022/04/22 06:50:59;;;;;;;0.30;0.30;;;8.50;99.90;;;;;;5105978;28;20040;-80
2022/04/22 06:53:26;;;;;;;0.10;0.10;;;8.50;99.90;;;;;;5072471;28;20405;-81
2022/04/22 06:55:55;;;;;;;0.20;0.20;;;8.60;99.90;;;;;;5089662;28;20033;-82
2022/04/22 06:58:22;;;;;;;0.10;0.10;;;8.70;99.90;;;;;;5088875;28;20485;-80
2022/04/22 07:00:48;;;;;;;0.10;0.10;;;8.80;99.90;;;;;;5072418;28;20048;-82
2022/04/22 07:03:17;;;;;;;0.10;0.10;;;9.00;99.90;;;;;;5072458;28;20041;-80
2022/04/22 07:05:47;;;;;;;0.15;0.15;;;9.10;99.90;;;;;;5106303;28;20087;-80
2022/04/22 07:08:14;;;;;;;0.10;0.10;;;9.20;99.90;;;;;;5106105;28;20075;-81
2022/04/22 07:10:41;;;;;;;0.10;0.10;;;9.30;99.90;;;;;;5106549;28;20040;-80
2022/04/22 07:13:09;;;;;;;0.20;0.20;;;9.40;99.90;;;;;;5072966;28;20041;-82
2022/04/22 07:15:37;;;;;;;0.20;0.20;;;9.50;99.90;;;;;;5106016;28;20040;-80
2022/04/22 07:18:04;;;;;;;0.10;0.10;;;9.70;99.90;;;;;;5105679;28;20051;-81
2022/04/22 07:20:31;;;;;;;0.10;0.10;;;9.80;99.90;;;;;;5117417;28;20036;-81
2022/04/22 07:22:59;;;;;;;0.10;0.10;;;9.90;99.90;;;;;;5073520;28;20033;-82
2022/04/22 07:25:27;;;;;;;0.10;0.10;;;10.00;99.90;;;;;;5068651;28;20041;-82
2022/04/22 07:27:54;;;;;;;0.10;0.10;;;10.10;99.90;;;;;;5085426;28;20079;-80
2022/04/22 07:30:22;;;;;;;0.10;0.10;;;10.20;99.90;;;;;;5088724;28;20086;-80
2022/04/22 07:32:49;;;;;;;0.10;0.10;;;10.30;99.90;;;;;;5089465;28;20102;-81
2022/04/22 07:35:21;;;;;;;0.10;0.10;;;10.40;99.90;;;;;;5088665;28;20040;-81
2022/04/22 07:37:54;;;;;;;0.17;0.17;;;10.50;99.90;;;;;;5089284;28;20063;-80
2022/04/22 07:40:22;;;;;;;0.10;0.10;;;10.60;99.90;;;;;;5072127;28;20040;-82
2022/04/22 07:48:23;;;;;;;0.10;0.10;;;10.90;99.90;;;;;;5091463;28;20047;-80
2022/04/22 07:50:50;;;;;;;0.10;0.10;;;11.00;99.90;;;;;;5072442;28;20121;-81
2022/04/22 07:53:19;;;;;;;0.10;0.10;;;11.20;99.90;;;;;;5055745;28;20106;-80
2022/04/22 07:55:46;;;;;;;0.10;0.10;;;11.30;99.90;;;;;;5088558;28;20037;-82
2022/04/22 07:58:13;;;;;;;0.20;0.20;;;11.40;99.90;;;;;;5086423;28;20040;-81
2022/04/22 08:00:41;;;;;;;0.10;0.10;;;11.50;99.90;;;;;;5074853;28;20142;-81
2022/04/22 08:03:08;;;;;;;0.10;0.10;;;11.60;99.90;;;;;;5108965;28;20041;-82
2022/04/22 08:05:40;;;;;;;0.10;0.10;;;11.70;99.90;;;;;;5091691;28;20123;-81
2022/04/22 08:08:07;;;;;;;0.10;0.10;;;11.80;99.90;;;;;;5092228;28;20109;-82
2022/04/22 08:10:34;;;;;;;0.10;0.10;;;11.80;99.90;;;;;;5091961;28;20308;-80
2022/04/22 08:13:05;;;;;;;0.10;0.10;;;11.90;99.90;;;;;;5092019;28;20044;-81
2022/04/22 08:15:35;;;;;;;0.10;0.10;;;12.00;99.90;;;;;;5091789;28;20036;-81
2022/04/22 08:18:03;;;;;;;0.10;0.10;;;12.10;99.90;;;;;;5074001;28;20563;-80
2022/04/22 08:20:32;;;;;;;0.10;0.10;;;12.20;99.90;;;;;;5091832;28;20036;-81
2022/04/22 08:22:59;;;;;;;0.10;0.10;;;12.30;99.90;;;;;;5108792;28;20503;-82
2022/04/22 08:25:27;;;;;;;0.10;0.10;;;12.30;99.90;;;;;;5089035;28;20033;-80
2022/04/22 08:27:54;;;;;;;0.00;0.00;;;12.40;99.90;;;;;;5100814;28;20044;-83
2022/04/22 08:30:21;;;;;;;0.10;0.10;;;12.40;99.90;;;;;;5108204;28;20036;-80
2022/04/22 08:32:47;;;;;;;0.10;0.10;;;12.50;99.90;;;;;;5069289;28;20746;-80
2022/04/22 08:35:14;;;;;;;0.10;0.10;;;12.60;99.90;;;;;;5086176;28;20416;-80
2022/04/22 08:37:44;;;;;;;0.10;0.10;;;12.70;99.90;;;;;;5107214;28;20385;-82
2022/04/22 08:40:12;;;;;;;0.05;0.05;;;12.80;99.90;;;;;;5092052;28;20423;-81
2022/04/22 08:42:41;;;;;;;0.00;0.00;;;12.90;99.90;;;;;;5105207;28;20106;-79
2022/04/22 08:45:09;;;;;;;0.10;0.10;;;13.00;99.90;;;;;;5112208;28;20037;-79
2022/04/22 08:50:26;;;;;;;0.63;0.47;;;13.10;99.90;;;;;;5108324;28;20040;-82
2022/04/22 08:52:55;;;;;;;0.00;0.00;;;13.20;99.90;;;;;;5095899;28;20036;-82
2022/04/22 08:55:25;;;;;;;0.10;0.10;;;13.40;99.90;;;;;;5083944;28;20059;-80
2022/04/22 08:57:54;;;;;;;0.10;0.10;;;13.50;99.90;;;;;;5090237;28;20516;-83
2022/04/22 09:00:22;;;;;;;0.00;0.00;;;13.50;99.90;;;;;;5090533;28;20080;-78
2022/04/22 09:02:50;;;;;;;0.10;0.10;;;13.60;99.90;;;;;;5089311;28;20036;-80
2022/04/22 09:05:16;;;;;;;0.00;0.00;;;13.80;99.90;;;;;;5091085;28;20036;-81
2022/04/22 09:07:44;;;;;;;0.00;0.00;;;14.00;99.90;;;;;;5106837;28;20089;-82
2022/04/22 09:10:11;;;;;;;0.10;0.10;;;14.10;99.90;;;;;;5106891;28;20114;-82
2022/04/22 09:12:42;;;;;;;0.10;0.10;;;14.10;99.90;;;;;;5070824;28;20489;-83
2022/04/22 09:15:10;;;;;;;0.10;0.10;;;14.10;99.90;;;;;;5090300;28;20044;-82
2022/04/22 09:17:38;;;;;;;0.10;0.10;;;14.20;99.90;;;;;;5090614;28;20413;-80
2022/04/22 09:20:05;;;;;;;0.10;0.10;;;14.30;99.90;;;;;;5057775;28;20126;-80
2022/04/22 09:22:35;;;;;;;0.10;0.10;;;14.30;99.90;;;;;;5073532;28;20156;-82
2022/04/22 09:25:05;;;;;;;0.00;0.00;;;14.30;99.90;;;;;;5103589;28;20151;-80
2022/04/22 09:27:37;;;;;;;0.10;0.10;;;14.40;99.90;;;;;;5070220;28;20531;-80
2022/04/22 09:30:09;;;;;;;0.00;0.00;;;14.50;99.90;;;;;;5087578;28;20045;-83
2022/04/22 09:32:39;;;;;;;0.00;0.00;;;14.60;99.90;;;;;;5083778;28;20124;-83
2022/04/22 09:35:12;;;;;;;0.00;0.00;;;14.60;99.90;;;;;;5088728;28;20076;-83
2022/04/22 09:43:42;;;;;;;0.08;0.08;;;14.80;99.90;;;;;;5105627;28;20099;-80
2022/04/22 09:46:22;;;;;;;0.00;0.00;;;14.90;99.90;;;;;;5085870;28;20048;-80
2022/04/22 09:48:56;;;;;;;0.00;0.00;;;15.00;99.90;;;;;;5089692;28;20147;-80
2022/04/22 09:51:26;;;;;;;0.00;0.00;;;15.10;99.90;;;;;;5074563;28;20459;-83
2022/04/22 09:54:07;;;;;;;0.03;0.03;;;15.10;99.90;;;;;;5073761;28;20033;-83
2022/04/22 09:56:33;;;;;;;0.10;0.10;;;15.20;99.90;;;;;;5073671;28;20040;-81
2022/04/22 09:59:23;;;;;;;0.40;0.15;;;15.30;99.90;;;;;;5073906;28;20481;-83
2022/04/22 10:01:50;;;;;;;0.00;0.00;;;15.40;99.90;;;;;;5078180;28;20052;-83
2022/04/22 10:04:19;;;;;;;0.00;0.00;;;15.30;99.90;;;;;;5107542;28;20404;-82
2022/04/22 10:06:47;;;;;;;0.00;0.00;;;15.40;99.90;;;;;;5093159;28;20036;-80
2022/04/22 10:09:15;;;;;;;0.00;0.00;;;15.60;99.90;;;;;;5110044;28;20036;-83
2022/04/22 10:11:44;;;;;;;0.00;0.00;;;15.70;99.90;;;;;;5093026;28;20401;-84
2022/04/22 10:14:11;;;;;;;0.03;0.03;;;15.70;99.90;;;;;;5113992;28;20101;-83
2022/04/22 10:16:39;;;;;;;0.30;0.10;;;15.90;99.90;;;;;;5082466;28;20094;-82
2022/04/22 10:19:07;;;;;;;0.05;0.05;;;15.90;99.90;;;;;;5078132;28;20068;-82
2022/04/22 10:21:34;;;;;;;0.08;0.08;;;15.90;99.20;;;;;;5055520;28;20477;-81
2022/04/22 10:24:01;;;;;;;0.00;0.00;;;15.90;99.90;;;;;;5066584;28;20072;-82
2022/04/22 10:26:28;;;;;;;0.10;0.10;;;16.00;99.90;;;;;;5048357;28;20028;-80
2022/04/22 10:28:55;;;;;;;0.10;0.10;;;15.90;99.80;;;;;;5103187;28;20139;-80
2022/04/22 10:31:23;;;;;;;0.10;0.10;;;16.00;99.90;;;;;;5072522;28;20558;-80
2022/04/22 10:33:50;;;;;;;0.10;0.10;;;16.00;99.90;;;;;;5080775;28;20040;-83
2022/04/22 10:36:19;;;;;;;0.00;0.00;;;16.00;99.80;;;;;;5073161;28;20056;-83
2022/04/22 10:38:50;;;;;;;0.00;0.00;;;16.00;99.90;;;;;;5072645;28;20041;-83
2022/04/22 10:41:21;;;;;;;0.05;0.05;;;16.10;99.40;;;;;;5089310;28;20098;-83
2022/04/22 10:49:43;;;;;;;;;;;16.50;99.90;;;;;;5092875;28;20041;-80
2022/04/22 10:52:13;;;;;;;0.00;0.00;;;16.50;99.30;;;;;;5085588;28;19916;-80
2022/04/22 10:54:55;;;;;;;0.20;0.13;;;16.50;99.00;;;;;;5077593;28;20048;-83
2022/04/22 10:57:29;;;;;;;0.00;0.00;;;16.60;99.30;;;;;;5089339;28;20083;-81
2022/04/22 11:00:09;;;;;;;0.10;0.10;;;16.60;99.40;;;;;;5088732;28;20086;-83
2022/04/22 11:02:43;;;;;;;0.10;0.10;;;16.70;99.50;;;;;;5122079;28;20044;-82
2022/04/22 11:05:19;;;;;;;0.00;0.00;;;16.80;99.50;;;;;;5088434;28;20120;-81
2022/04/22 11:07:57;;;;;;;0.03;0.03;;;16.90;99.90;;;;;;5105661;28;20095;-83
2022/04/22 11:10:48;;;;;;;1.02;0.32;;;16.80;99.10;;;;;;5083145;28;20041;-80
2022/04/22 11:13:34;;;;;;;0.17;0.08;;;16.70;98.90;;;;;;5059564;28;20049;-83
2022/04/22 11:16:14;;;;;;;0.10;0.10;;;16.70;98.60;;;;;;5081807;28;20032;-80
2022/04/22 11:18:43;;;;;;;0.32;0.25;;;16.80;99.10;;;;;;5089002;28;20052;-81
2022/04/22 11:21:19;;;;;;;0.00;0.00;;;16.70;98.90;;;;;;5089373;28;20076;-82
2022/04/22 11:23:46;;;;;;;0.70;0.43;;;16.70;98.60;;;;;;5105774;28;20044;-83
2022/04/22 11:26:15;;;;;;;0.00;0.00;;;16.70;98.70;;;;;;5089126;28;20040;-83
2022/04/22 11:28:44;;;;;;;0.63;0.40;;;16.60;98.50;;;;;;5089352;28;20033;-83
2022/04/22 11:31:13;;;;;;;0.10;0.10;;;16.70;98.80;;;;;;5089544;28;20040;-84
2022/04/22 11:33:44;;;;;;;0.20;0.17;;;16.70;98.40;;;;;;5072700;28;20075;-82
2022/04/22 11:36:11;;;;;;;0.45;0.10;;;16.80;98.40;;;;;;5078262;28;20093;-81
2022/04/22 11:38:49;;;;;;;0.10;0.10;;;16.90;98.80;;;;;;5075562;28;20078;-80
2022/04/22 11:41:17;;;;;;;0.20;0.20;;;17.10;99.10;;;;;;5076028;28;20051;-83
2022/04/22 11:43:45;;;;;;;0.43;0.30;;;17.20;97.90;;;;;;5108617;28;20052;-82
2022/04/22 11:46:12;;;;;;;0.45;0.35;;;17.20;97.20;;;;;;5092286;28;20814;-80
2022/04/22 11:48:50;;;;;;;0.00;0.00;;;17.30;97.70;;;;;;5091837;28;20036;-83
2022/04/22 11:51:19;;;;;;;0.10;0.10;;;17.40;98.20;;;;;;5092497;28;20048;-80
2022/04/22 11:53:46;;;;;;;0.32;0.20;;;17.30;97.20;;;;;;5075700;28;20044;-82
2022/04/22 11:56:18;;;;;;;0.30;0.28;;;17.40;97.40;;;;;;5088068;28;20041;-80
2022/04/22 11:58:45;;;;;;;0.10;0.10;;;17.40;97.20;;;;;;5106289;28;20052;-80
2022/04/22 12:06:42;;;;;;;0.30;0.20;;;17.80;97.10;;;;;;5080298;28;20135;-82
2022/04/22 12:09:08;;;;;;;0.28;0.20;;;17.80;96.20;;;;;;5091978;28;20119;-81
2022/04/22 12:11:41;;;;;;;0.55;0.20;;;17.80;96.20;;;;;;5060047;28;20036;-84
2022/04/22 12:14:07;;;;;;;0.65;0.40;;;17.90;97.10;;;;;;5091767;28;20045;-84
2022/04/22 12:16:34;;;;;;;0.73;0.30;;;17.80;96.20;;;;;;5075263;28;20054;-80
2022/04/22 12:19:01;;;;;;;0.43;0.30;;;17.80;96.10;;;;;;5074913;28;20045;-80
2022/04/22 12:21:33;;;;;;;0.28;0.22;;;17.80;96.00;;;;;;5092003;28;20127;-80
2022/04/22 12:24:02;;;;;;;0.38;0.28;;;17.80;95.90;;;;;;5091066;28;20770;-81
2022/04/22 12:26:36;;;;;;;0.22;0.20;;;17.80;96.60;;;;;;5091998;28;20037;-83
2022/04/22 12:29:10;;;;;;;0.80;0.40;;;18.00;96.70;;;;;;5091892;28;20036;-81
2022/04/22 12:31:44;;;;;;;0.85;0.40;;;17.90;96.50;;;;;;5091737;28;20045;-81
2022/04/22 12:34:13;;;;;;;0.20;0.17;;;18.00;96.30;;;;;;5092286;28;20090;-84
2022/04/22 12:36:52;;;;;;;0.10;0.10;;;17.90;95.90;;;;;;5075155;28;20050;-83
2022/04/22 12:39:41;;;;;;;0.40;0.25;;;18.00;96.60;;;;;;5091640;28;20113;-85
2022/04/22 12:42:17;;;;;;;0.77;0.38;;;18.00;96.80;;;;;;5091095;28;20048;-81
2022/04/22 12:53:31;;;;;;;0.10;0.10;;;18.30;95.90;;;;;;5094049;28;20044;-84
2022/04/22 12:56:00;;;;;;;0.77;0.25;;;18.30;96.00;;;;;;5091402;28;20040;-81
2022/04/22 12:58:27;;;;;;;0.35;0.20;;;18.20;95.30;;;;;;5091807;28;20049;-84
2022/04/22 13:00:57;;;;;;;0.22;0.20;;;18.10;95.90;;;;;;5091352;28;20044;-80
2022/04/22 13:03:36;;;;;;;0.50;0.30;;;18.20;96.00;;;;;;5091464;28;20036;-83
2022/04/22 13:06:03;;;;;;;0.28;0.28;;;18.20;96.10;;;;;;5108042;28;20504;-83
2022/04/22 13:08:30;;;;;;;0.82;0.32;;;18.10;95.70;;;;;;5091331;28;20040;-81
2022/04/22 13:10:59;;;;;;;0.25;0.15;;;18.20;96.10;;;;;;5107795;28;20043;-83
2022/04/22 13:13:27;;;;;;;0.45;0.28;;;18.20;96.30;;;;;;5091191;28;20040;-83
2022/04/22 13:15:54;;;;;;;0.35;0.30;;;18.20;95.80;;;;;;5090899;28;20510;-80
2022/04/22 13:18:20;;;;;;;0.57;0.35;;;18.20;95.70;;;;;;5091053;28;20075;-80
2022/04/22 13:20:47;;;;;;;0.20;0.20;;;18.20;95.30;;;;;;5090463;28;20048;-83
2022/04/22 13:23:14;;;;;;;0.52;0.47;;;18.20;95.70;;;;;;5108110;28;20044;-80
2022/04/22 13:25:40;;;;;;;0.52;0.30;;;18.40;96.10;;;;;;5074679;28;20477;-84
2022/04/22 13:28:07;;;;;;;0.63;0.38;;;18.40;95.70;;;;;;5074156;28;20043;-80
2022/04/22 13:30:34;;;;;;;0.65;0.43;;;18.20;94.60;;;;;;5090656;28;20094;-81
2022/04/22 13:33:00;;;;;;;0.70;0.40;;;18.10;95.50;;;;;;5074020;28;20044;-83
2022/04/22 13:35:27;;;;;;;0.45;0.35;;;18.00;95.50;;;;;;5074219;28;20052;-80
2022/04/22 13:37:54;;;;;;;0.30;0.20;;;18.10;96.20;;;;;;5074263;28;20048;-80
2022/04/22 13:40:21;;;;;;;0.82;0.52;;;18.20;95.90;;;;;;5074340;28;20465;-83
2022/04/22 13:42:48;;;;;;;1.98;0.77;;;18.30;95.60;;;;;;5073229;28;20049;-82
2022/04/22 13:53:31;;;;;;;0.70;0.40;;;18.00;96.90;;;;;;5078840;28;20131;-80
2022/04/22 13:55:58;;;;;;;0.35;0.28;;;18.10;95.10;;;;;;5089632;28;20128;-81
2022/04/22 13:58:24;;;;;;;0.32;0.20;;;18.20;95.40;;;;;;5057131;28;20077;-83
2022/04/22 14:00:51;;;;;;;0.80;0.50;;;18.40;95.40;;;;;;5057351;28;20112;-83
2022/04/22 14:03:19;;;;;;;0.57;0.45;;;18.40;94.70;;;;;;5057453;28;20036;-81
2022/04/22 14:05:46;;;;;;;0.10;0.10;;;18.40;94.10;;;;;;5090229;28;20123;-83
2022/04/22 14:08:13;;;;;;;0.45;0.30;;;18.50;93.60;;;;;;5090173;28;20136;-83
2022/04/22 14:10:40;;;;;;;0.63;0.30;;;18.40;93.60;;;;;;5073333;28;20123;-81
2022/04/22 14:13:06;;;;;;;1.35;0.77;;;18.40;94.90;;;;;;5090103;28;20044;-81
2022/04/22 14:15:33;;;;;;;1.02;0.65;;;18.40;94.90;;;;;;5057114;28;20553;-80
2022/04/22 14:18:00;;;;;;;0.85;0.50;;;18.40;94.30;;;;;;5089944;28;20435;-80